Chitral Weather



Chitral's Current Weather

Temprature 24.95o clear sky

clear sky

Rain: 0 %

Min Temprature24.95o
Max Temprature24.95o
Humidity32
Wind Speed3.27 m/h
Sun Rise05:02:00
Sun Set19:32:32
Current Time: 05-Jul-2020 18:40:25
Lat/Lon: 35.85, 71.79




Chitral's Geo Location



Chitral's Weather Forecast

Time Overall Temp Min Temp Max Temp Humidity Wind Speed Rain
05-Jul-2020 (Sun)
20:00:00 light rain 24.960 23.710 24.960 31 2.45 m/h 10 %
23:00:00 light rain 23.130 22.290 23.130 34 0.88 m/h 19 %
06-Jul-2020 (Mon)
02:00:00 clear sky 21.230 20.890 21.230 36 0.87 m/h 0 %
05:00:00 clear sky 19.470 19.420 19.470 35 0.75 m/h 0 %
08:00:00 clear sky 23.590 23.590 23.590 21 0.33 m/h 0 %
11:00:00 clear sky 27.230 27.230 27.230 16 2.23 m/h 0 %
14:00:00 clear sky 29.670 29.670 29.670 14 3.56 m/h 0 %
17:00:00 clear sky 30.110 30.110 30.110 17 4.55 m/h 0 %
20:00:00 few clouds 26.600 26.600 26.600 27 2.27 m/h 0 %
23:00:00 light rain 24.150 24.150 24.150 34 1.99 m/h 45 %
07-Jul-2020 (Tue)
02:00:00 broken clouds 23.040 23.040 23.040 38 0.59 m/h 0 %
05:00:00 light rain 21.870 21.870 21.870 41 0.28 m/h 10 %
08:00:00 scattered clouds 25.260 25.260 25.260 30 0.5 m/h 0 %
11:00:00 few clouds 28.580 28.580 28.580 23 2.45 m/h 0 %
14:00:00 light rain 30.960 30.960 30.960 19 4.46 m/h 22 %
17:00:00 light rain 30.950 30.950 30.950 18 4.21 m/h 14 %
20:00:00 light rain 24.520 24.520 24.520 33 4.43 m/h 34 %
23:00:00 light rain 23.490 23.490 23.490 34 2.24 m/h 18 %
08-Jul-2020 (Wed)
02:00:00 clear sky 22.900 22.900 22.900 35 1.59 m/h 0 %
05:00:00 clear sky 22.310 22.310 22.310 36 1.41 m/h 0 %
08:00:00 clear sky 26.040 26.040 26.040 27 1.44 m/h 0 %
11:00:00 clear sky 29.410 29.410 29.410 20 0.76 m/h 0 %
14:00:00 clear sky 32.230 32.230 32.230 16 3.2 m/h 0 %
17:00:00 light rain 32.520 32.520 32.520 17 4.67 m/h 17 %
20:00:00 light rain 26.380 26.380 26.380 32 2.83 m/h 92 %
23:00:00 light rain 22.430 22.430 22.430 44 1.89 m/h 289 %
09-Jul-2020 (Thu)
02:00:00 light rain 22.940 22.940 22.940 41 2.4 m/h 113 %
05:00:00 light rain 22.590 22.590 22.590 41 1.38 m/h 11 %
08:00:00 few clouds 25.580 25.580 25.580 32 1.72 m/h 0 %
11:00:00 light rain 29.190 29.190 29.190 24 2.26 m/h 37 %
14:00:00 light rain 31.480 31.480 31.480 22 4.39 m/h 22 %
17:00:00 moderate rain 24.420 24.420 24.420 42 2.85 m/h 426 %
20:00:00 light rain 24.860 24.860 24.860 39 1.46 m/h 66 %
23:00:00 light rain 24.290 24.290 24.290 39 1.09 m/h 29 %
10-Jul-2020 (Fri)
02:00:00 clear sky 23.740 23.740 23.740 36 1.71 m/h 0 %
05:00:00 clear sky 22.360 22.360 22.360 35 1.95 m/h 0 %
08:00:00 clear sky 26.140 26.140 26.140 24 1.23 m/h 0 %
11:00:00 clear sky 29.440 29.440 29.440 17 1.08 m/h 0 %
14:00:00 clear sky 31.860 31.860 31.860 14 2.09 m/h 0 %
17:00:00 few clouds 31.450 31.450 31.450 20 4.29 m/h 0 %

Famous Cities (60)